Time;durP1;ratioP1;P1;durP2;ratioP2;P2;SDS_P1;SDS_P2;PMS_P1;PMS_P2;Temp;Humidity;BMP_temperature;BMP_pressure;BME280_temperature;BME280_humidity;BME280_pressure;Samples;Min_cycle;Max_cycle;Signal;HPM_P1;HPM_P2
2022/06/29 00:01:23;;;;;;;2.60;0.80;;;17.30;99.90;;;;;;5074048;28;20068;-71
2022/06/29 00:03:51;;;;;;;3.15;1.02;;;17.30;99.90;;;;;;5071913;28;20105;-71
2022/06/29 00:06:18;;;;;;;5.10;1.23;;;17.30;99.90;;;;;;5056734;28;20041;-71
2022/06/29 00:08:45;;;;;;;6.63;1.02;;;17.20;99.90;;;;;;5051768;28;20123;-71
2022/06/29 00:11:11;;;;;;;5.32;1.17;;;17.30;99.90;;;;;;5052224;28;20476;-71
2022/06/29 00:13:37;;;;;;;4.68;0.98;;;17.30;99.90;;;;;;5053053;28;20045;-71
2022/06/29 00:16:03;;;;;;;4.40;1.13;;;17.20;99.90;;;;;;5051972;28;20038;-71
2022/06/29 00:18:28;;;;;;;3.50;1.35;;;17.30;99.90;;;;;;5051872;28;20068;-71
2022/06/29 00:20:54;;;;;;;2.95;0.98;;;17.30;99.90;;;;;;5052190;28;20037;-71
2022/06/29 00:23:20;;;;;;;2.35;1.02;;;17.30;99.90;;;;;;5052262;28;20521;-71
2022/06/29 00:25:46;;;;;;;5.57;1.42;;;17.30;99.90;;;;;;5051775;28;20037;-71
2022/06/29 00:28:12;;;;;;;6.32;1.00;;;17.30;99.90;;;;;;5051997;28;20033;-71
2022/06/29 00:30:38;;;;;;;4.82;0.90;;;17.30;99.90;;;;;;5052060;28;20048;-71
2022/06/29 00:33:05;;;;;;;4.35;0.90;;;17.10;99.90;;;;;;5051714;28;20052;-71
2022/06/29 00:35:31;;;;;;;4.82;0.90;;;17.20;99.90;;;;;;5050529;28;20060;-72
2022/06/29 00:37:56;;;;;;;2.05;0.85;;;17.30;99.90;;;;;;5056856;28;20411;-71
2022/06/29 00:40:22;;;;;;;4.00;0.70;;;17.30;99.90;;;;;;5071829;28;20036;-72
2022/06/29 00:42:48;;;;;;;6.68;1.25;;;17.40;99.90;;;;;;5072348;28;20036;-71
2022/06/29 00:45:14;;;;;;;1.60;0.77;;;17.40;99.90;;;;;;5071945;28;20040;-72
2022/06/29 00:47:39;;;;;;;1.95;0.80;;;17.40;99.90;;;;;;5071766;28;20372;-71
2022/06/29 00:50:06;;;;;;;3.20;1.00;;;17.50;99.90;;;;;;5073661;28;20439;-71
2022/06/29 00:52:35;;;;;;;4.53;0.70;;;17.50;99.90;;;;;;5073038;28;20044;-71
2022/06/29 00:55:10;;;;;;;3.88;0.75;;;17.60;99.90;;;;;;5071891;28;20080;-72
2022/06/29 00:57:40;;;;;;;3.13;0.93;;;17.50;99.90;;;;;;5071513;28;20048;-71
2022/06/29 01:00:06;;;;;;;;;;;17.40;99.90;;;;;;5072231;28;20106;-71
2022/06/29 01:02:32;;;;;;;2.97;1.10;;;17.50;99.90;;;;;;5071605;28;20383;-71
2022/06/29 01:04:59;;;;;;;2.60;1.05;;;17.40;99.90;;;;;;5071413;28;20388;-71
2022/06/29 01:07:27;;;;;;;2.78;1.00;;;17.50;99.90;;;;;;5070302;28;20033;-71
2022/06/29 01:09:53;;;;;;;3.42;0.90;;;17.50;99.90;;;;;;5070358;28;20094;-71
2022/06/29 01:12:19;;;;;;;3.22;1.00;;;17.50;99.90;;;;;;5071716;28;20519;-71
2022/06/29 01:14:47;;;;;;;5.93;1.10;;;17.50;99.90;;;;;;5073903;28;20411;-71
2022/06/29 01:17:13;;;;;;;2.42;0.77;;;17.50;99.90;;;;;;5075963;28;20041;-71
2022/06/29 01:19:40;;;;;;;6.28;0.95;;;17.50;99.90;;;;;;5075452;28;20044;-71
2022/06/29 01:22:15;;;;;;;2.80;1.00;;;17.50;99.90;;;;;;5075975;28;20094;-71
2022/06/29 01:24:44;;;;;;;7.30;0.98;;;17.50;99.90;;;;;;5067890;28;20025;-71
2022/06/29 01:27:11;;;;;;;2.83;0.90;;;17.50;99.90;;;;;;5075664;28;20044;-71
2022/06/29 01:29:37;;;;;;;5.95;0.98;;;17.50;99.90;;;;;;5075261;28;20038;-71
2022/06/29 01:32:03;;;;;;;1.88;0.90;;;17.50;99.90;;;;;;5074018;28;20510;-71
2022/06/29 01:34:30;;;;;;;5.43;1.20;;;17.50;99.90;;;;;;5075330;28;20517;-72
2022/06/29 01:36:57;;;;;;;8.18;1.52;;;17.50;99.90;;;;;;5074249;28;20039;-71
2022/06/29 01:39:23;;;;;;;2.42;1.13;;;17.50;99.90;;;;;;5075013;28;20041;-71
2022/06/29 01:41:48;;;;;;;6.72;1.00;;;17.50;99.90;;;;;;5075325;28;20123;-71
2022/06/29 01:44:14;;;;;;;6.82;1.00;;;17.50;99.90;;;;;;5073848;28;20154;-73
2022/06/29 01:46:40;;;;;;;8.40;1.20;;;17.60;99.90;;;;;;5074718;28;20097;-70
2022/06/29 01:49:07;;;;;;;4.07;1.00;;;17.50;99.90;;;;;;5075802;28;20036;-71
2022/06/29 01:51:33;;;;;;;3.70;0.90;;;17.60;99.90;;;;;;5075757;28;20044;-71
2022/06/29 01:53:59;;;;;;;7.03;1.48;;;17.50;99.90;;;;;;5074736;28;20563;-71
2022/06/29 01:56:25;;;;;;;6.18;1.20;;;17.60;99.90;;;;;;5074639;28;20040;-71
2022/06/29 01:58:50;;;;;;;4.32;0.80;;;17.50;99.90;;;;;;5075337;28;20123;-71
2022/06/29 02:01:16;;;;;;;4.50;1.10;;;17.50;99.90;;;;;;5074757;28;20494;-71
2022/06/29 02:03:42;;;;;;;3.05;0.75;;;17.60;99.90;;;;;;5074406;28;20040;-71
2022/06/29 02:06:08;;;;;;;2.05;0.85;;;17.70;99.90;;;;;;5074857;28;20504;-71
2022/06/29 02:08:34;;;;;;;3.88;0.95;;;17.60;99.90;;;;;;5071255;28;20115;-71
2022/06/29 02:11:00;;;;;;;1.58;0.80;;;17.60;99.90;;;;;;5074954;28;20174;-71
2022/06/29 02:13:27;;;;;;;4.47;1.00;;;17.70;99.90;;;;;;5073156;28;20108;-71
2022/06/29 02:15:53;;;;;;;2.15;0.93;;;17.70;99.90;;;;;;5074644;28;20530;-71
2022/06/29 02:18:19;;;;;;;3.50;0.73;;;17.70;99.90;;;;;;5075074;28;20166;-72
2022/06/29 02:20:45;;;;;;;4.45;0.90;;;17.70;99.90;;;;;;5075727;28;20044;-71
2022/06/29 02:23:11;;;;;;;2.35;1.20;;;17.70;99.90;;;;;;5073234;28;20040;-71
2022/06/29 02:25:36;;;;;;;4.63;1.00;;;17.70;99.90;;;;;;5073116;28;20584;-71
2022/06/29 02:28:03;;;;;;;2.88;0.90;;;17.70;99.90;;;;;;5076310;28;20080;-71
2022/06/29 02:35:57;;;;;;;3.80;0.90;;;17.80;99.90;;;;;;5075149;28;20047;-71
2022/06/29 02:38:23;;;;;;;2.38;0.90;;;17.80;99.90;;;;;;5073941;28;20107;-71
2022/06/29 02:40:49;;;;;;;4.70;0.80;;;17.80;99.90;;;;;;5074344;28;20048;-71
2022/06/29 02:43:14;;;;;;;1.42;0.77;;;17.80;99.90;;;;;;5074053;28;20033;-71
2022/06/29 02:45:40;;;;;;;2.45;1.20;;;17.80;99.90;;;;;;5073890;28;20024;-71
2022/06/29 02:48:07;;;;;;;4.03;0.88;;;17.80;99.90;;;;;;5074297;28;20048;-71
2022/06/29 02:50:32;;;;;;;2.47;1.00;;;17.80;99.90;;;;;;5073822;28;20039;-71
2022/06/29 02:52:58;;;;;;;2.80;0.70;;;17.80;99.90;;;;;;5072686;28;20044;-71
2022/06/29 02:55:24;;;;;;;5.57;0.90;;;17.70;99.90;;;;;;5073638;28;20048;-71
2022/06/29 02:57:50;;;;;;;4.18;0.80;;;17.70;99.90;;;;;;5073904;28;20555;-71
2022/06/29 03:00:16;;;;;;;5.55;0.90;;;17.70;99.90;;;;;;5072364;28;20052;-71
2022/06/29 03:02:41;;;;;;;2.83;1.10;;;17.70;99.90;;;;;;5072709;28;20074;-72
2022/06/29 03:05:08;;;;;;;3.28;1.10;;;17.60;99.90;;;;;;5072782;28;20456;-72
2022/06/29 03:07:33;;;;;;;3.53;1.05;;;17.60;99.90;;;;;;5073343;28;20052;-71
2022/06/29 03:09:59;;;;;;;2.00;0.82;;;17.60;99.90;;;;;;5073279;28;20405;-71
2022/06/29 03:12:25;;;;;;;5.50;1.05;;;17.60;99.90;;;;;;5073203;28;20076;-71
2022/06/29 03:14:51;;;;;;;4.80;1.20;;;17.60;99.90;;;;;;5073488;28;20136;-71
2022/06/29 03:17:17;;;;;;;2.63;0.95;;;17.50;99.90;;;;;;5069202;28;20052;-71
2022/06/29 03:19:42;;;;;;;4.90;1.40;;;17.40;99.90;;;;;;5072086;28;20045;-71
2022/06/29 03:22:08;;;;;;;5.05;0.98;;;17.40;99.90;;;;;;5072792;28;20051;-71
2022/06/29 03:24:34;;;;;;;5.55;1.45;;;17.40;99.90;;;;;;5072668;28;20114;-71
2022/06/29 03:27:00;;;;;;;3.47;1.15;;;17.40;99.90;;;;;;5071689;28;20094;-71
2022/06/29 03:29:26;;;;;;;6.45;1.10;;;17.40;99.90;;;;;;5073190;28;20101;-71
2022/06/29 03:31:52;;;;;;;4.13;1.00;;;17.40;99.90;;;;;;5071892;28;20048;-71
2022/06/29 03:34:18;;;;;;;3.60;0.80;;;17.30;99.90;;;;;;5073501;28;20486;-71
2022/06/29 03:36:44;;;;;;;4.10;0.98;;;17.30;99.90;;;;;;5072661;28;20055;-72
2022/06/29 03:39:09;;;;;;;5.65;1.00;;;17.20;99.90;;;;;;5072904;28;20051;-71
2022/06/29 03:41:35;;;;;;;7.85;1.00;;;17.20;99.90;;;;;;5072550;28;20075;-71
2022/06/29 03:44:01;;;;;;;6.75;1.17;;;17.10;99.90;;;;;;5072569;28;20048;-71
2022/06/29 03:46:27;;;;;;;22.88;2.80;;;17.10;99.90;;;;;;5072207;28;20093;-71
2022/06/29 03:48:53;;;;;;;20.75;3.40;;;17.10;99.90;;;;;;5074252;28;20403;-71
2022/06/29 03:51:18;;;;;;;14.27;2.13;;;17.10;99.90;;;;;;5074352;28;20037;-71
2022/06/29 03:53:44;;;;;;;18.25;1.60;;;17.00;99.90;;;;;;5072797;28;20194;-71
2022/06/29 03:56:10;;;;;;;17.30;2.67;;;17.00;99.90;;;;;;5072865;28;20090;-71
2022/06/29 03:58:36;;;;;;;13.40;2.35;;;16.90;99.90;;;;;;5072679;28;20071;-71
2022/06/29 04:01:01;;;;;;;14.95;1.85;;;17.00;99.90;;;;;;5071487;28;20040;-71
2022/06/29 04:03:27;;;;;;;7.63;1.40;;;16.90;99.90;;;;;;5072026;28;20146;-71
2022/06/29 04:05:53;;;;;;;9.90;1.52;;;16.90;99.90;;;;;;5069114;28;20055;-71
2022/06/29 04:08:19;;;;;;;15.60;2.00;;;16.90;99.90;;;;;;5073092;28;20096;-71
2022/06/29 04:10:44;;;;;;;4.90;1.42;;;16.90;99.90;;;;;;5072395;28;20380;-71
2022/06/29 04:13:10;;;;;;;9.35;1.88;;;16.80;99.90;;;;;;5072338;28;20105;-71
2022/06/29 04:15:36;;;;;;;11.30;1.67;;;16.80;99.90;;;;;;5072073;28;20044;-71
2022/06/29 04:18:02;;;;;;;4.22;0.90;;;16.90;99.90;;;;;;5072311;28;20376;-71
2022/06/29 04:23:12;;;;;;;12.10;1.40;;;16.70;99.90;;;;;;5073894;28;20414;-71
2022/06/29 04:25:38;;;;;;;8.65;1.23;;;16.70;99.90;;;;;;5072129;28;20036;-71
2022/06/29 04:28:06;;;;;;;4.22;1.02;;;16.80;99.90;;;;;;5072270;28;20048;-71
2022/06/29 04:30:32;;;;;;;5.40;1.17;;;16.80;99.90;;;;;;5070589;28;20491;-72
2022/06/29 04:32:58;;;;;;;5.93;1.40;;;16.80;99.90;;;;;;5071629;28;20048;-71
2022/06/29 04:35:24;;;;;;;1.95;0.90;;;16.80;99.90;;;;;;5068040;28;20056;-71
2022/06/29 04:37:50;;;;;;;3.88;1.23;;;16.80;99.90;;;;;;5070654;28;20127;-71
2022/06/29 04:40:15;;;;;;;5.32;1.10;;;16.80;99.90;;;;;;5071396;28;20116;-71
2022/06/29 04:42:41;;;;;;;4.18;1.73;;;16.80;99.90;;;;;;5070164;28;20369;-71
2022/06/29 04:46:19;;;;;;;5.05;1.15;;;16.80;99.90;;;;;;5071504;28;20082;-72
2022/06/29 04:47:53;;;;;;;12.73;1.48;;;16.70;99.90;;;;;;5070634;28;20032;-71
2022/06/29 04:50:19;;;;;;;4.43;0.93;;;16.70;99.90;;;;;;5071411;28;20121;-72
2022/06/29 04:52:45;;;;;;;3.80;0.98;;;16.80;99.90;;;;;;5064547;28;20051;-71
2022/06/29 04:55:10;;;;;;;1.60;1.10;;;16.70;99.90;;;;;;5071897;28;20048;-71
2022/06/29 04:57:36;;;;;;;6.13;1.15;;;16.80;99.90;;;;;;5062706;28;20083;-71
2022/06/29 05:00:03;;;;;;;4.65;1.20;;;16.80;99.90;;;;;;5051573;28;20040;-71
2022/06/29 05:02:28;;;;;;;12.73;1.38;;;16.90;99.90;;;;;;5050718;28;20125;-72
2022/06/29 05:04:54;;;;;;;4.07;1.00;;;16.90;99.90;;;;;;5051656;28;20052;-71
2022/06/29 05:07:20;;;;;;;7.95;2.55;;;17.00;99.90;;;;;;5071851;28;20040;-71
2022/06/29 05:09:46;;;;;;;7.30;1.50;;;17.00;99.90;;;;;;5071913;28;20060;-71
2022/06/29 05:12:11;;;;;;;3.28;1.10;;;17.20;99.90;;;;;;5073082;28;20028;-71
2022/06/29 05:14:37;;;;;;;5.00;1.00;;;17.30;99.90;;;;;;5073537;28;20048;-72
2022/06/29 05:17:03;;;;;;;3.83;1.20;;;17.40;99.90;;;;;;5071499;28;20032;-69
2022/06/29 05:19:29;;;;;;;4.43;1.15;;;17.60;99.90;;;;;;5071168;28;20055;-70
2022/06/29 05:21:55;;;;;;;4.63;1.00;;;17.60;99.90;;;;;;5071819;28;20033;-69
2022/06/29 05:24:20;;;;;;;7.72;1.35;;;17.50;99.90;;;;;;5072217;28;20074;-70
2022/06/29 05:26:46;;;;;;;8.15;1.25;;;17.70;99.90;;;;;;5071469;28;20060;-70
2022/06/29 05:29:12;;;;;;;8.25;1.20;;;17.60;99.90;;;;;;5070222;28;20083;-70
2022/06/29 05:31:38;;;;;;;5.85;1.40;;;17.70;99.90;;;;;;5068582;28;20064;-70
2022/06/29 05:34:03;;;;;;;4.07;1.30;;;17.60;99.90;;;;;;5072218;28;20044;-70
2022/06/29 05:36:29;;;;;;;3.85;1.23;;;17.60;99.90;;;;;;5071884;28;20033;-70
2022/06/29 05:38:55;;;;;;;4.07;1.15;;;17.90;99.90;;;;;;5070898;28;20407;-70
2022/06/29 05:41:20;;;;;;;3.70;1.33;;;17.80;99.90;;;;;;5071907;28;20386;-70
2022/06/29 05:43:51;;;;;;;5.32;1.40;;;17.80;99.90;;;;;;5071777;28;20533;-71
2022/06/29 05:46:18;;;;;;;3.80;0.90;;;18.00;99.90;;;;;;5071624;28;20048;-71
2022/06/29 05:48:45;;;;;;;4.68;1.00;;;18.00;99.90;;;;;;5070850;28;20040;-70
2022/06/29 05:51:10;;;;;;;5.30;1.35;;;18.40;99.90;;;;;;5071139;28;20111;-69
2022/06/29 05:53:36;;;;;;;7.03;1.67;;;18.50;99.90;;;;;;5071673;28;20037;-70
2022/06/29 05:56:02;;;;;;;3.35;0.98;;;18.60;99.90;;;;;;5073160;28;20036;-69
2022/06/29 05:58:28;;;;;;;8.00;1.83;;;18.30;99.90;;;;;;5073040;28;20044;-70
2022/06/29 06:00:54;;;;;;;2.75;1.08;;;18.10;99.90;;;;;;5073834;28;20032;-69
2022/06/29 06:03:20;;;;;;;2.20;0.90;;;18.00;99.90;;;;;;5073506;28;20048;-70
2022/06/29 06:05:46;;;;;;;5.28;1.00;;;18.00;99.90;;;;;;5074515;28;20032;-70
2022/06/29 06:08:13;;;;;;;2.40;1.42;;;18.20;99.90;;;;;;5074962;28;21061;-69
2022/06/29 06:10:39;;;;;;;7.25;1.00;;;18.20;99.90;;;;;;5073374;28;20469;-70
2022/06/29 06:13:05;;;;;;;3.75;1.23;;;18.60;99.90;;;;;;5074347;28;20064;-70
2022/06/29 06:15:32;;;;;;;6.72;1.13;;;19.00;99.90;;;;;;5056533;28;20455;-70
2022/06/29 06:17:58;;;;;;;5.50;0.82;;;19.20;99.90;;;;;;5054709;28;20048;-70
2022/06/29 06:20:24;;;;;;;4.88;1.10;;;19.10;99.90;;;;;;5054425;28;20036;-69
2022/06/29 06:22:50;;;;;;;3.85;1.10;;;19.30;99.90;;;;;;5055077;28;20040;-70
2022/06/29 06:25:16;;;;;;;5.57;1.42;;;19.70;99.90;;;;;;5053289;28;20040;-70
2022/06/29 06:27:41;;;;;;;5.43;1.25;;;19.90;99.90;;;;;;5052978;28;20257;-70
2022/06/29 06:30:07;;;;;;;3.65;1.10;;;20.30;99.90;;;;;;5054215;28;20033;-70
2022/06/29 06:32:33;;;;;;;8.25;1.08;;;20.70;99.90;;;;;;5054879;28;20047;-71
2022/06/29 06:34:59;;;;;;;1.58;0.82;;;21.10;99.90;;;;;;5055403;28;20052;-71
2022/06/29 06:37:25;;;;;;;2.80;0.90;;;21.30;99.90;;;;;;5054283;28;20037;-71
2022/06/29 06:42:34;;;;;;;4.50;1.08;;;21.40;99.90;;;;;;5073983;28;20526;-70
2022/06/29 06:45:00;;;;;;;5.95;0.90;;;21.40;99.90;;;;;;5074531;28;20064;-71
2022/06/29 06:47:26;;;;;;;4.80;1.20;;;21.50;99.90;;;;;;5075976;28;20068;-70
2022/06/29 06:49:52;;;;;;;5.60;1.33;;;21.40;99.90;;;;;;5075975;28;20037;-71
2022/06/29 06:52:17;;;;;;;2.53;0.90;;;21.40;99.90;;;;;;5074848;28;20044;-71
2022/06/29 06:54:46;;;;;;;5.53;1.42;;;22.00;99.90;;;;;;5072338;28;20040;-71
2022/06/29 06:57:12;;;;;;;2.05;0.80;;;22.00;99.90;;;;;;5075575;28;20474;-72
2022/06/29 06:59:38;;;;;;;5.40;1.25;;;21.90;99.90;;;;;;5073813;28;20060;-73
2022/06/29 07:02:04;;;;;;;7.13;0.85;;;22.10;99.90;;;;;;5074061;28;20383;-71
2022/06/29 07:04:30;;;;;;;15.60;1.33;;;22.10;99.90;;;;;;5073732;28;20052;-70
2022/06/29 07:06:55;;;;;;;3.00;0.80;;;22.30;99.90;;;;;;5073986;28;20044;-71
2022/06/29 07:09:21;;;;;;;3.10;1.13;;;22.30;99.90;;;;;;5073824;28;20724;-70
2022/06/29 07:11:47;;;;;;;6.22;1.10;;;22.20;99.90;;;;;;5073198;28;20045;-73
2022/06/29 07:14:13;;;;;;;4.05;1.10;;;22.70;99.90;;;;;;5073356;28;20058;-71
2022/06/29 07:16:39;;;;;;;6.38;1.10;;;22.80;99.90;;;;;;5073860;28;20040;-71
2022/06/29 07:19:04;;;;;;;5.07;1.00;;;22.90;99.90;;;;;;5073734;28;20414;-71
2022/06/29 07:21:30;;;;;;;14.93;1.30;;;22.60;99.90;;;;;;5073165;28;20111;-71
2022/06/29 07:23:59;;;;;;;3.83;1.10;;;22.80;99.90;;;;;;5072605;28;20029;-70
2022/06/29 07:26:25;;;;;;;4.88;1.00;;;23.30;99.90;;;;;;5073132;28;20048;-71
2022/06/29 07:28:52;;;;;;;3.13;0.90;;;23.30;99.90;;;;;;5062260;28;20561;-72
2022/06/29 07:31:19;;;;;;;3.97;1.10;;;23.20;99.30;;;;;;5062948;28;20101;-72
2022/06/29 07:33:44;;;;;;;4.45;1.33;;;23.30;99.90;;;;;;5072229;28;20491;-71
2022/06/29 07:36:10;;;;;;;3.85;0.80;;;23.80;99.90;;;;;;5072419;28;20046;-71
2022/06/29 07:38:36;;;;;;;3.45;0.90;;;23.50;99.90;;;;;;5071967;28;20383;-73
2022/06/29 07:41:02;;;;;;;7.22;1.30;;;24.00;99.90;;;;;;5072122;28;20062;-73
2022/06/29 07:43:29;;;;;;;5.72;1.10;;;23.90;99.90;;;;;;5071171;28;20436;-71
2022/06/29 07:45:57;;;;;;;4.57;1.10;;;24.00;99.90;;;;;;5071092;28;20052;-73
2022/06/29 07:48:23;;;;;;;4.72;1.10;;;24.40;99.90;;;;;;5070985;28;21001;-73
2022/06/29 07:50:50;;;;;;;5.03;1.10;;;24.70;98.80;;;;;;5072170;28;20052;-71
2022/06/29 07:53:15;;;;;;;4.55;1.00;;;24.70;99.20;;;;;;5071942;28;20170;-71
2022/06/29 07:55:44;;;;;;;4.57;1.02;;;24.60;98.60;;;;;;5072116;28;20567;-71
2022/06/29 07:58:14;;;;;;;5.05;1.27;;;24.90;99.50;;;;;;5069169;28;20123;-71
2022/06/29 08:00:40;;;;;;;7.03;1.40;;;25.00;98.30;;;;;;5070505;28;20056;-71
2022/06/29 08:03:06;;;;;;;3.58;1.08;;;25.20;99.50;;;;;;5071378;28;20110;-71
2022/06/29 08:05:32;;;;;;;3.45;1.27;;;25.30;98.60;;;;;;5065133;28;20500;-72
2022/06/29 08:07:58;;;;;;;5.82;1.55;;;24.90;97.60;;;;;;5051365;28;20047;-71
2022/06/29 08:10:24;;;;;;;3.58;1.15;;;25.10;97.00;;;;;;5050736;28;20091;-71
2022/06/29 08:12:50;;;;;;;2.67;1.15;;;24.40;98.00;;;;;;5050519;28;20106;-72
2022/06/29 08:15:17;;;;;;;4.28;1.48;;;24.50;98.90;;;;;;5050659;28;20466;-71
2022/06/29 08:17:44;;;;;;;3.60;1.10;;;24.80;98.20;;;;;;5050447;28;20100;-72
2022/06/29 08:20:11;;;;;;;6.25;1.10;;;24.50;97.00;;;;;;5050786;28;20044;-71
2022/06/29 08:22:36;;;;;;;6.28;1.13;;;24.80;97.90;;;;;;5050255;28;20041;-71
2022/06/29 08:25:03;;;;;;;4.35;1.33;;;24.70;96.70;;;;;;5048805;28;20041;-71
2022/06/29 08:27:30;;;;;;;2.38;0.80;;;25.50;99.70;;;;;;5048822;28;20428;-71
2022/06/29 08:29:56;;;;;;;3.53;0.98;;;25.00;97.60;;;;;;5048933;28;20123;-70
2022/06/29 08:32:22;;;;;;;4.15;1.20;;;24.60;97.60;;;;;;5058401;28;20116;-71
2022/06/29 08:34:48;;;;;;;6.00;1.17;;;23.90;96.70;;;;;;5071001;28;20084;-71
2022/06/29 08:37:14;;;;;;;4.88;1.33;;;24.20;97.80;;;;;;5070756;28;20552;-71
2022/06/29 08:39:40;;;;;;;6.75;1.17;;;25.20;97.70;;;;;;5068592;28;20065;-71
2022/06/29 08:42:06;;;;;;;2.65;1.00;;;24.80;97.20;;;;;;5068830;28;20060;-70
2022/06/29 08:44:34;;;;;;;12.90;1.90;;;24.90;97.50;;;;;;5068394;28;20083;-70
2022/06/29 08:47:08;;;;;;;2.72;0.80;;;24.70;97.20;;;;;;5069978;28;20395;-70
2022/06/29 08:49:36;;;;;;;6.50;1.00;;;24.90;97.10;;;;;;5070497;28;20119;-70
2022/06/29 08:52:05;;;;;;;5.55;1.30;;;24.30;97.60;;;;;;5070472;28;20029;-70
2022/06/29 08:54:35;;;;;;;6.97;1.35;;;24.50;97.60;;;;;;5067243;28;20083;-70
2022/06/29 08:57:03;;;;;;;18.95;2.10;;;24.80;97.90;;;;;;5070176;28;20511;-71
2022/06/29 08:59:29;;;;;;;5.88;1.20;;;25.00;96.80;;;;;;5069385;28;20044;-71
2022/06/29 09:01:55;;;;;;;4.80;1.30;;;24.20;96.90;;;;;;5070170;28;20044;-71
2022/06/29 09:04:21;;;;;;;4.40;1.05;;;24.20;96.60;;;;;;5069187;28;20499;-71
2022/06/29 09:06:54;;;;;;;3.75;1.30;;;25.50;97.80;;;;;;5070280;28;20036;-71
2022/06/29 09:09:20;;;;;;;5.32;0.95;;;25.80;96.70;;;;;;5069694;28;20507;-70
2022/06/29 09:11:48;;;;;;;5.28;1.08;;;26.00;96.70;;;;;;5068540;28;20532;-70
2022/06/29 09:14:20;;;;;;;3.25;1.40;;;26.10;97.90;;;;;;5069849;28;20040;-71
2022/06/29 09:16:55;;;;;;;6.25;1.30;;;25.10;95.00;;;;;;5070250;28;20037;-71
2022/06/29 09:19:42;;;;;;;5.18;1.30;;;24.60;95.20;;;;;;5069772;28;20062;-71
2022/06/29 09:22:08;;;;;;;5.15;1.20;;;25.80;96.70;;;;;;5070346;28;20510;-70
2022/06/29 09:24:34;;;;;;;2.83;1.20;;;25.80;94.70;;;;;;5062053;28;20095;-72
2022/06/29 09:27:02;;;;;;;6.97;1.30;;;25.70;95.90;;;;;;5067696;28;20076;-71
2022/06/29 09:29:32;;;;;;;8.05;1.23;;;25.60;94.00;;;;;;5069345;28;20044;-71
2022/06/29 09:32:04;;;;;;;3.10;1.30;;;25.50;94.30;;;;;;5068911;28;20055;-70
2022/06/29 09:34:31;;;;;;;6.55;1.25;;;25.70;96.00;;;;;;5070431;28;20060;-71
2022/06/29 09:36:58;;;;;;;5.40;1.23;;;25.50;95.20;;;;;;5074222;28;20434;-71
2022/06/29 09:39:34;;;;;;;5.30;1.20;;;25.40;95.80;;;;;;5073117;28;20066;-71
2022/06/29 09:42:01;;;;;;;3.22;0.98;;;25.70;96.60;;;;;;5073499;28;20121;-71
2022/06/29 09:44:27;;;;;;;4.38;1.67;;;25.90;95.00;;;;;;5073105;28;20044;-71
2022/06/29 09:46:55;;;;;;;3.13;1.35;;;26.00;96.50;;;;;;5073295;28;20039;-73
2022/06/29 09:49:25;;;;;;;2.22;1.20;;;26.00;95.90;;;;;;5073985;28;20526;-71
2022/06/29 09:51:55;;;;;;;2.35;0.95;;;25.60;94.10;;;;;;5074204;28;20133;-71
2022/06/29 09:54:30;;;;;;;4.88;1.40;;;25.80;95.00;;;;;;5073948;28;20052;-72
2022/06/29 09:56:57;;;;;;;4.60;1.10;;;25.70;95.40;;;;;;5073429;28;20045;-72
2022/06/29 10:02:40;;;;;;;3.13;1.15;;;25.50;95.00;;;;;;5050736;28;20025;-71
2022/06/29 10:05:09;;;;;;;4.97;1.20;;;26.00;95.70;;;;;;5070103;28;20040;-71
2022/06/29 10:07:37;;;;;;;3.45;0.88;;;25.80;96.30;;;;;;5073152;28;20041;-71
2022/06/29 10:10:05;;;;;;;3.90;1.15;;;25.80;94.30;;;;;;5073239;28;20063;-71
2022/06/29 10:15:38;;;;;;;3.22;0.88;;;25.00;93.60;;;;;;5051138;28;20098;-71
2022/06/29 10:18:15;;;;;;;7.05;0.98;;;25.30;95.20;;;;;;5071850;28;20040;-75
2022/06/29 10:20:48;;;;;;;4.43;1.30;;;25.90;94.20;;;;;;5071110;28;20044;-71
2022/06/29 10:23:45;;;;;;;3.35;1.20;;;25.90;93.30;;;;;;5071219;28;20581;-70
2022/06/29 10:26:32;;;;;;;5.55;1.13;;;25.50;93.20;;;;;;5072249;28;20037;-78
2022/06/29 10:29:09;;;;;;;3.08;1.20;;;25.30;93.90;;;;;;5064703;28;20050;-70
2022/06/29 10:31:51;;;;;;;6.20;1.45;;;25.50;93.90;;;;;;5071704;28;20119;-69
2022/06/29 10:34:31;;;;;;;4.20;1.00;;;25.80;92.40;;;;;;5072241;28;20501;-79
2022/06/29 10:37:02;;;;;;;3.60;1.08;;;25.60;93.40;;;;;;5073546;28;20044;-69
2022/06/29 10:39:50;;;;;;;6.25;2.67;;;25.70;93.10;;;;;;5073458;28;20044;-69
2022/06/29 10:45:21;;;;;;;3.22;1.27;;;25.70;93.60;;;;;;5074613;28;20135;-70
2022/06/29 10:47:56;;;;;;;17.45;2.38;;;26.30;94.90;;;;;;5072469;28;20115;-71
2022/06/29 10:50:26;;;;;;;2.65;1.20;;;25.60;93.70;;;;;;5073016;28;20086;-70
2022/06/29 10:52:53;;;;;;;1.67;0.90;;;26.10;94.90;;;;;;5073545;28;20086;-69
2022/06/29 10:55:20;;;;;;;5.80;1.45;;;26.80;95.40;;;;;;5072651;28;20457;-70
2022/06/29 10:57:46;;;;;;;2.38;0.90;;;26.80;96.10;;;;;;5073021;28;20372;-70
2022/06/29 11:00:20;;;;;;;1.73;0.90;;;26.40;92.20;;;;;;5073226;28;20046;-70
2022/06/29 11:02:46;;;;;;;3.45;1.20;;;26.30;93.00;;;;;;5072779;28;20395;-70
2022/06/29 11:05:12;;;;;;;2.45;1.05;;;26.00;92.70;;;;;;5074534;28;20048;-73
2022/06/29 11:13:11;;;;;;;6.72;1.08;;;26.70;95.10;;;;;;5068266;28;20102;-69
2022/06/29 11:15:47;;;;;;;3.55;1.50;;;26.10;93.60;;;;;;5071896;28;20048;-69
2022/06/29 11:18:18;;;;;;;2.22;0.93;;;25.90;94.00;;;;;;5072197;28;20063;-70
2022/06/29 11:20:49;;;;;;;6.57;1.00;;;25.90;93.30;;;;;;5072113;28;20063;-71
2022/06/29 11:23:19;;;;;;;3.30;1.00;;;25.90;95.00;;;;;;5071403;28;20060;-70
2022/06/29 11:25:48;;;;;;;2.97;1.08;;;26.20;93.90;;;;;;5070710;28;20083;-77
2022/06/29 11:28:17;;;;;;;3.63;0.95;;;26.00;93.00;;;;;;5069071;28;20067;-69
2022/06/29 11:30:57;;;;;;;2.22;1.10;;;25.70;92.80;;;;;;5072444;28;20125;-70
2022/06/29 11:33:33;;;;;;;3.75;1.17;;;25.50;93.90;;;;;;5073493;28;20090;-70
2022/06/29 11:36:08;;;;;;;6.28;1.20;;;25.60;92.60;;;;;;5068798;28;20059;-80
2022/06/29 11:38:43;;;;;;;2.67;1.20;;;25.70;94.40;;;;;;5071893;28;20036;-76
2022/06/29 11:41:25;;;;;;;2.80;1.10;;;25.20;94.30;;;;;;5071730;28;20065;-79
2022/06/29 11:44:05;;;;;;;3.30;1.30;;;25.00;93.30;;;;;;5071491;28;20499;-77
2022/06/29 11:46:36;;;;;;;3.85;1.08;;;24.30;94.00;;;;;;5071139;28;20039;-69
2022/06/29 11:51:59;;;;;;;4.07;1.08;;;24.60;94.50;;;;;;5071573;28;20170;-69
2022/06/29 11:54:44;;;;;;;3.97;0.90;;;24.90;95.10;;;;;;5071308;28;20052;-70
2022/06/29 11:57:12;;;;;;;5.90;1.50;;;25.10;95.30;;;;;;5071366;28;20040;-69
2022/06/29 11:59:39;;;;;;;4.93;1.30;;;24.80;94.20;;;;;;5071298;28;20044;-69
2022/06/29 12:02:05;;;;;;;3.45;1.13;;;24.70;94.50;;;;;;5071420;28;20369;-70
2022/06/29 12:04:33;;;;;;;5.47;1.50;;;25.00;95.90;;;;;;5070663;28;20043;-69
2022/06/29 12:07:14;;;;;;;5.05;1.27;;;24.80;94.90;;;;;;5071287;28;20317;-69
2022/06/29 12:09:41;;;;;;;2.70;1.10;;;25.20;97.50;;;;;;5070238;28;20106;-69
2022/06/29 12:12:11;;;;;;;5.15;1.42;;;25.70;95.90;;;;;;5071452;28;20522;-82
2022/06/29 12:14:37;;;;;;;;;;;25.20;94.10;;;;;;5059497;28;20127;-77
2022/06/29 12:17:05;;;;;;;2.80;1.25;;;25.20;95.00;;;;;;5051435;28;20062;-81
2022/06/29 12:19:31;;;;;;;8.23;1.33;;;25.60;95.50;;;;;;5050756;28;20041;-79
2022/06/29 12:22:00;;;;;;;5.70;1.23;;;25.70;94.70;;;;;;5063814;28;20124;-75
2022/06/29 12:24:26;;;;;;;3.67;1.20;;;25.90;95.10;;;;;;5070856;28;20060;-79
2022/06/29 12:26:52;;;;;;;2.85;1.08;;;26.00;95.60;;;;;;5071012;28;20052;-73
2022/06/29 12:29:18;;;;;;;5.93;1.30;;;26.20;94.70;;;;;;5070968;28;20038;-74
2022/06/29 12:31:45;;;;;;;2.75;1.10;;;26.40;96.90;;;;;;5070462;28;20411;-79
2022/06/29 12:34:12;;;;;;;5.43;1.20;;;26.40;97.30;;;;;;5069398;28;20044;-85
2022/06/29 12:36:39;;;;;;;3.10;1.02;;;26.10;93.90;;;;;;5050457;28;20059;-83
2022/06/29 12:39:06;;;;;;;2.70;1.08;;;26.00;94.90;;;;;;5050652;28;20040;-81
2022/06/29 12:41:33;;;;;;;2.85;1.10;;;25.30;94.00;;;;;;5054041;28;20064;-77
2022/06/29 12:43:59;;;;;;;5.22;1.38;;;25.50;95.80;;;;;;5070447;28;20115;-70
2022/06/29 12:46:27;;;;;;;2.97;1.20;;;25.10;94.80;;;;;;5070628;28;20036;-73
2022/06/29 12:48:54;;;;;;;4.88;1.40;;;25.00;95.00;;;;;;5070974;28;20402;-70
2022/06/29 12:51:20;;;;;;;3.25;1.08;;;25.00;95.30;;;;;;5071154;28;20074;-69
2022/06/29 12:53:46;;;;;;;9.75;1.52;;;25.40;95.70;;;;;;5070661;28;20076;-84
2022/06/29 12:56:11;;;;;;;9.77;1.17;;;25.70;94.80;;;;;;5070483;28;20048;-72
2022/06/29 12:58:37;;;;;;;3.08;1.20;;;25.40;93.90;;;;;;5070492;28;20386;-69
2022/06/29 13:01:03;;;;;;;2.58;1.17;;;25.40;94.70;;;;;;5071004;28;20040;-74
2022/06/29 13:03:29;;;;;;;2.13;1.20;;;25.30;94.60;;;;;;5072091;28;20036;-69
2022/06/29 13:05:54;;;;;;;4.07;1.50;;;25.50;95.30;;;;;;5073123;28;20495;-69
2022/06/29 13:08:20;;;;;;;2.88;0.95;;;25.40;94.80;;;;;;5071199;28;20045;-68
2022/06/29 13:10:46;;;;;;;5.00;2.03;;;25.50;93.80;;;;;;5071899;28;20059;-68
2022/06/29 13:13:12;;;;;;;4.05;1.30;;;26.20;95.00;;;;;;5072725;28;20044;-68
2022/06/29 13:15:38;;;;;;;3.33;1.27;;;26.10;94.80;;;;;;5072800;28;20063;-69
2022/06/29 13:18:04;;;;;;;4.13;1.27;;;25.80;93.20;;;;;;5072378;28;20021;-69